Aristomenis — D5OA5 — position and weather

sailwx.info

Track history (hours):
 
Tides and Currents Weather Stations Pressure Air Temp Water Temp Dewpoint Dewpoint Depression Visibility Wind Speed Wind Dir Waves Ship Positions

Aristomenis

Last reported at 2017-Sep-25 15:28 UTC. Time now 2017-Oct-18 02:00 UTC.
Position N 40°23' W 071°48'.
Warning: this ship's position is 22 days out of date.

Length 350 m; draft 8.9 m.

Type: Ship (hazmat cat B). MMSI: 636018070.

Date/timePositionNaut miles runAvg speedWind from/ knotsBaromVisibWave heightAir tempDewpointWater temp
2017-Sep-25 15:28N 40°23' W 071°48'912.7
2017-Sep-25 14:45N 40°23' W 072°00'312.7
2017-Sep-25 14:30N 40°23' W 072°04'612.4
2017-Sep-25 14:00N 40°23' W 072°13'612.4
2017-Sep-25 13:30N 40°23' W 072°21'712.7
2017-Sep-25 12:59N 40°23' W 072°29'612.7
2017-Sep-25 12:30N 40°23' W 072°37'612.5
2017-Sep-25 12:00N 40°22' W 072°46'612.5
2017-Sep-25 11:30N 40°22' W 072°54'912.4
2017-Sep-25 10:45N 40°22' W 073°06'412.6
2017-Sep-25 10:28N 40°23' W 073°11'612.8
2017-Sep-25 09:59N 40°23' W 073°19'713.0
2017-Sep-25 09:26N 40°24' W 073°28'613.3
2017-Sep-25 08:57N 40°25' W 073°37'613.5
2017-Sep-25 08:30N 40°26' W 073°44'612.3
2017-Sep-25 08:00N 40°28' W 073°52'815.8
2017-Sep-25 07:30N 40°32' W 074°01'714.7
2017-Sep-25 07:00N 40°39' W 074°04'4 7.4
2017-Sep-25 06:30N 40°39' W 074°09'2 3.4
2017-Sep-25 06:01N 40°40' W 074°08'0 0.3
2017-Sep-25 05:28N 40°40' W 074°09'0 0.0
2017-Sep-25 04:58N 40°40' W 074°09'0 0.0
2017-Sep-25 04:28N 40°40' W 074°09'0 0.0
2017-Sep-25 03:58N 40°40' W 074°09'0 0.0
2017-Sep-25 03:28N 40°40' W 074°09'0 0.0
2017-Sep-25 02:58N 40°40' W 074°09'0 0.0
2017-Sep-25 02:28N 40°40' W 074°09'0 0.0
2017-Sep-25 01:58N 40°40' W 074°09'0 0.0
2017-Sep-25 01:28N 40°40' W 074°09'0 0.0
2017-Sep-25 00:58N 40°40' W 074°09'0 0.0
2017-Sep-25 00:28N 40°40' W 074°09'0 0.0
2017-Sep-24 23:58N 40°40' W 074°09'0 0.0
2017-Sep-24 23:28N 40°40' W 074°09'0 0.0
2017-Sep-24 22:58N 40°40' W 074°09'0 0.0
2017-Sep-24 22:28N 40°40' W 074°09'0 0.0
2017-Sep-24 21:58N 40°40' W 074°09'0 0.0
2017-Sep-24 21:28N 40°40' W 074°09'0 0.0
2017-Sep-24 20:55N 40°40' W 074°09'0 0.0
2017-Sep-24 20:28N 40°40' W 074°09'0 0.0
2017-Sep-24 19:58N 40°40' W 074°09'0 0.0
2017-Sep-24 19:25N 40°40' W 074°09'0 0.0
2017-Sep-24 18:55N 40°40' W 074°09'0 0.0
2017-Sep-24 18:28N 40°40' W 074°09'0 0.0
2017-Sep-24 17:58N 40°40' W 074°09'0 0.0
2017-Sep-24 17:25N 40°40' W 074°09'0 0.0
2017-Sep-24 16:58N 40°40' W 074°09'0 0.0
2017-Sep-24 16:28N 40°40' W 074°09'0 0.0
2017-Sep-24 15:55N 40°40' W 074°09'0 0.0
2017-Sep-24 15:28N 40°40' W 074°09'0 0.0
2017-Sep-24 14:55N 40°40' W 074°09'0 0.0
2017-Sep-24 14:28N 40°40' W 074°09'0 0.0
2017-Sep-24 13:58N 40°40' W 074°09'0 0.0
2017-Sep-24 13:25N 40°40' W 074°09'0 0.0
2017-Sep-24 12:58N 40°40' W 074°09'0 0.0
2017-Sep-24 12:25N 40°40' W 074°09'0 0.0
2017-Sep-24 11:58N 40°40' W 074°09'0 0.0
2017-Sep-24 11:28N 40°40' W 074°09'0 0.0
2017-Sep-24 10:58N 40°40' W 074°09'0 0.0
2017-Sep-24 10:28N 40°40' W 074°09'0 0.0
2017-Sep-24 10:00N 40°40' W 074°09'2 3.2
2017-Sep-24 09:31N 40°39' W 074°09'3 6.1
2017-Sep-24 09:00N 40°39' W 074°05'4 7.3
2017-Sep-24 08:31N 40°36' W 074°02'5 9.6
2017-Sep-24 08:00N 40°31' W 074°00'611.4
2017-Sep-24 07:30N 40°29' W 073°54'611.4
2017-Sep-24 07:00N 40°26' W 073°47'611.1
2017-Sep-24 06:30N 40°21' W 073°47'4 8.9
2017-Sep-24 06:01N 40°16' W 073°46'611.7
2017-Sep-24 05:30N 40°10' W 073°45'714.4
2017-Sep-24 05:00N 40°03' W 073°44'714.3
2017-Sep-24 04:31N 39°56' W 073°43'714.5
2017-Sep-24 04:01N 39°49' W 073°42'713.9
2017-Sep-24 03:30N 39°42' W 073°43'714.2
2017-Sep-24 03:00N 39°35' W 073°46'714.3
2017-Sep-24 02:30N 39°28' W 073°49'714.5
2017-Sep-24 02:00N 39°22' W 073°53'714.1
2017-Sep-24 01:30N 39°15' W 073°56'814.2
2017-Sep-24 00:57N 39°08' W 073°59'714.2
2017-Sep-24 00:28N 39°01' W 074°02'714.4
2017-Sep-24 00:00N 38°55' W 074°05'915.4
2017-Sep-23 23:24N 38°46' W 074°09'1415.2
2017-Sep-23 22:28N 38°33' W 074°15'715.0
2017-Sep-23 21:59N 38°26' W 074°18'  
2017-Sep-21 13:19N 32°46' W 079°53'2 7.2
2017-Sep-21 13:00N 32°48' W 079°55'2 5.0
2017-Sep-21 12:30N 32°50' W 079°54'0 0.3
2017-Sep-21 11:50N 32°50' W 079°54'0 0.0
2017-Sep-21 11:26N 32°50' W 079°54'0 0.0
2017-Sep-21 10:50N 32°50' W 079°54'0 0.0
2017-Sep-21 06:08N 32°50' W 079°54'0 0.0
2017-Sep-21 04:08N 32°50' W 079°54'0 0.0
2017-Sep-21 03:56N 32°50' W 079°54'0 0.0
2017-Sep-21 02:32N 32°50' W 079°54'0 0.1
2017-Sep-21 02:26N 32°50' W 079°54'0 0.0
2017-Sep-21 01:44N 32°50' W 079°54'0 0.0
2017-Sep-21 00:24N 32°50' W 079°54'2 4.3
2017-Sep-21 00:00N 32°48' W 079°55'4 8.5
2017-Sep-20 23:30N 32°45' W 079°52'612.1
2017-Sep-20 23:00N 32°42' W 079°46'1011.3
2017-Sep-20 22:05N 32°36' W 079°36'0 1.6
2017-Sep-20 21:59N 32°36' W 079°35'0 0.5
2017-Sep-20 21:15N 32°36' W 079°35'0 0.3
2017-Sep-20 21:00N 32°36' W 079°35'2 0.3
2017-Sep-20 13:33N 32°34' W 079°34'0 0.1
2017-Sep-20 13:15N 32°34' W 079°34'0 0.1
2017-Sep-20 12:39N 32°34' W 079°34'0 0.0
2017-Sep-20 12:27N 32°34' W 079°34'0 0.1
2017-Sep-20 10:33N 32°34' W 079°34'0 0.2
2017-Sep-20 10:30N 32°34' W 079°34'1 1.2
2017-Sep-20 10:00N 32°34' W 079°34'510.0
2017-Sep-20 09:29N 32°29' W 079°36'510.5
2017-Sep-20 09:00N 32°25' W 079°38'610.4
2017-Sep-20 08:26N 32°19' W 079°42'4 9.8
2017-Sep-20 08:00N 32°16' W 079°45'510.2
2017-Sep-20 07:30N 32°13' W 079°50'510.2
2017-Sep-20 07:00N 32°10' W 079°54'510.3
2017-Sep-20 06:30N 32°07' W 079°59'510.4
2017-Sep-20 06:00N 32°03' W 080°04'510.5
2017-Sep-20 05:30N 32°00' W 080°09'610.6
2017-Sep-20 04:59N 31°58' W 080°15'510.9
2017-Sep-20 04:30N 31°57' W 080°21'510.9
2017-Sep-20 04:00N 31°56' W 080°27'611.2
2017-Sep-20 03:30N 31°56' W 080°34'611.5
2017-Sep-20 03:00N 31°57' W 080°41'612.2
2017-Sep-20 02:30N 31°60' W 080°47'611.2
2017-Sep-20 02:00N 32°02' W 080°53'510.7
2017-Sep-20 01:31N 32°05' W 080°59'4 7.4
2017-Sep-20 01:01N 32°05' W 081°03'2 4.8
2017-Sep-20 00:30N 32°05' W 081°06'2 3.5
2017-Sep-20 00:00N 32°06' W 081°07'2 3.6
2017-Sep-19 23:31N 32°08' W 081°08'0 0.6
2017-Sep-19 22:59N 32°08' W 081°09'0 0.0
2017-Sep-19 22:23N 32°08' W 081°09'0 0.0
2017-Sep-19 21:59N 32°08' W 081°09'0 0.0
2017-Sep-19 21:17N 32°08' W 081°09'0 0.0
2017-Sep-19 20:59N 32°08' W 081°09'0 0.0
2017-Sep-19 20:29N 32°08' W 081°09'0 0.0
2017-Sep-19 19:59N 32°08' W 081°09'0 0.0
2017-Sep-19 19:23N 32°08' W 081°09'0 0.0
2017-Sep-19 18:59N 32°08' W 081°09'0 0.0
2017-Sep-19 18:23N 32°08' W 081°09'0 0.0
2017-Sep-19 17:53N 32°08' W 081°09'0 0.0
2017-Sep-19 17:23N 32°08' W 081°09'0 0.0
2017-Sep-19 16:59N 32°08' W 081°09'0 0.0
2017-Sep-19 16:23N 32°08' W 081°09'0 0.0
2017-Sep-19 15:59N 32°08' W 081°09'0 0.0
2017-Sep-19 15:29N 32°08' W 081°09'0 0.0
2017-Sep-19 14:53N 32°08' W 081°09'0 0.0
2017-Sep-19 14:29N 32°08' W 081°09'0 0.0
2017-Sep-19 13:53N 32°08' W 081°09'0 0.0
2017-Sep-19 13:17N 32°08' W 081°09'0 0.0
2017-Sep-19 12:47N 32°08' W 081°09'0 0.0
2017-Sep-19 11:59N 32°08' W 081°09'0 0.0
2017-Sep-19 11:29N 32°08' W 081°09'0 0.0
2017-Sep-19 10:53N 32°08' W 081°09'0 0.0
2017-Sep-19 10:29N 32°08' W 081°09'0 0.0
2017-Sep-19 09:23N 32°08' W 081°09'0 0.0
2017-Sep-19 08:47N 32°08' W 081°09'0 0.0
2017-Sep-19 08:23N 32°08' W 081°09'0 0.0
2017-Sep-19 07:59N 32°08' W 081°09'0 0.0
2017-Sep-19 07:17N 32°08' W 081°09'0 0.0
2017-Sep-19 06:59N 32°08' W 081°09'0 0.0
2017-Sep-19 06:29N 32°08' W 081°09'0 0.0
2017-Sep-19 06:00N 32°08' W 081°09'0 0.2
2017-Sep-19 05:30N 32°08' W 081°08'0 0.8
2017-Sep-19 05:00N 32°08' W 081°08'1 2.9
2017-Sep-19 04:30N 32°07' W 081°07'2 3.2
2017-Sep-19 04:00N 32°05' W 081°06'2 3.3
2017-Sep-19 03:30N 32°05' W 081°04'3 6.2
2017-Sep-19 03:00N 32°06' W 081°01'4 8.6
2017-Sep-19 02:30N 32°04' W 080°57'5 9.5
2017-Sep-19 02:00N 32°02' W 080°51'511.0
2017-Sep-19 01:30N 31°59' W 080°46'5 9.5
2017-Sep-19 01:00N 31°57' W 080°41'5 9.1
2017-Sep-19 00:30N 31°56' W 080°36'4 8.5
2017-Sep-19 00:00N 31°56' W 080°31'3 5.6
2017-Sep-18 23:29N 31°58' W 080°28'0 0.2
2017-Sep-18 22:54N 31°58' W 080°28'0 0.0
2017-Sep-18 22:30N 31°58' W 080°28'0 0.0
2017-Sep-18 22:00N 31°58' W 080°28'0 0.0
2017-Sep-18 21:30N 31°58' W 080°28'0 0.0
2017-Sep-18 20:54N 31°58' W 080°28'0 0.0
2017-Sep-18 20:30N 31°58' W 080°28'0 0.0
2017-Sep-18 19:54N 31°58' W 080°28'0 0.0
2017-Sep-18 19:30N 31°58' W 080°28'0 0.0
2017-Sep-18 19:00N 31°58' W 080°28'0 0.1
2017-Sep-18 18:30N 31°58' W 080°28'0 0.0
2017-Sep-18 17:54N 31°58' W 080°28'0 0.1
2017-Sep-18 17:30N 31°58' W 080°28'0 0.1
2017-Sep-18 17:00N 31°58' W 080°28'0 0.1
2017-Sep-18 16:30N 31°58' W 080°28'0 0.1
2017-Sep-18 16:00N 31°58' W 080°28'0 0.1
2017-Sep-18 15:30N 31°58' W 080°28'0 0.0
2017-Sep-18 14:54N 31°58' W 080°28'0 0.0
2017-Sep-18 14:24N 31°58' W 080°28'0 0.0
2017-Sep-18 14:00N 31°58' W 080°28'0 0.0
2017-Sep-18 13:24N 31°58' W 080°28'0 0.1
2017-Sep-18 12:54N 31°58' W 080°28'0 0.1
2017-Sep-18 12:12N 31°58' W 080°28'0 0.0
2017-Sep-18 12:00N 31°58' W 080°28'0 0.0
2017-Sep-18 11:18N 31°58' W 080°28'0 0.1
2017-Sep-18 10:54N 31°58' W 080°28'0 0.0
2017-Sep-18 10:30N 31°58' W 080°28'0 0.1
2017-Sep-18 10:00N 31°58' W 080°28'0 0.1
2017-Sep-18 09:24N 31°58' W 080°28'0 0.0
2017-Sep-18 08:48N 31°58' W 080°28'0 0.0
2017-Sep-18 08:30N 31°58' W 080°28'0 0.0
2017-Sep-18 08:00N 31°58' W 080°28'0 0.0
2017-Sep-18 07:30N 31°58' W 080°28'0 0.0
2017-Sep-18 07:00N 31°58' W 080°28'0 0.0
2017-Sep-18 06:30N 31°58' W 080°28'0 0.0
2017-Sep-18 05:54N 31°58' W 080°28'0 0.0
2017-Sep-18 05:30N 31°58' W 080°28'0 0.0
2017-Sep-18 05:00N 31°58' W 080°28'0 0.1
2017-Sep-18 04:30N 31°58' W 080°28'0 0.1
2017-Sep-18 04:00N 31°58' W 080°28'0 0.1
2017-Sep-18 03:30N 31°58' W 080°28'0 0.0
2017-Sep-18 03:00N 31°58' W 080°28'0 0.0
2017-Sep-18 02:30N 31°58' W 080°28'0 0.0
2017-Sep-18 02:00N 31°58' W 080°28'0 0.1
2017-Sep-18 01:30N 31°58' W 080°28'0 0.1
2017-Sep-18 01:00N 31°58' W 080°28'0 0.2
2017-Sep-18 00:24N 31°58' W 080°28'0 0.0
2017-Sep-18 00:00N 31°58' W 080°28'0 0.1
2017-Sep-17 23:30N 31°58' W 080°28'0 0.0
2017-Sep-17 23:00N 31°58' W 080°28'0 0.0
2017-Sep-17 22:30N 31°58' W 080°28'0 0.0
2017-Sep-17 22:00N 31°58' W 080°28'0 0.0
2017-Sep-17 21:30N 31°58' W 080°28'0 0.0
2017-Sep-17 20:54N 31°58' W 080°28'0 0.0
2017-Sep-17 20:30N 31°58' W 080°28'0 0.0
2017-Sep-17 20:00N 31°58' W 080°28'0 0.0
2017-Sep-17 19:30N 31°58' W 080°28'0 0.0
2017-Sep-17 19:00N 31°58' W 080°28'0 0.0
2017-Sep-17 18:30N 31°58' W 080°28'0 0.0
2017-Sep-17 17:48N 31°58' W 080°28'0 0.1
2017-Sep-17 17:30N 31°58' W 080°28'0 0.0
2017-Sep-17 17:00N 31°58' W 080°28'0 0.1
2017-Sep-17 16:30N 31°58' W 080°28'0 0.1
2017-Sep-17 16:00N 31°58' W 080°28'0 0.1
2017-Sep-17 15:30N 31°58' W 080°28'0 0.0
2017-Sep-17 15:00N 31°58' W 080°28'0 0.0
2017-Sep-17 14:30N 31°58' W 080°28'0 0.1
2017-Sep-17 14:00N 31°58' W 080°28'0 0.0
2017-Sep-17 13:30N 31°58' W 080°28'0 0.0
2017-Sep-17 13:00N 31°58' W 080°28'0 0.0
2017-Sep-17 12:30N 31°58' W 080°28'0 0.0
2017-Sep-17 11:54N 31°58' W 080°28'0 0.0
2017-Sep-17 11:30N 31°58' W 080°28'0 0.0
2017-Sep-17 11:00N 31°58' W 080°28'0 0.1
2017-Sep-17 10:24N 31°58' W 080°28'0 0.2
2017-Sep-17 10:00N 31°58' W 080°28'0 0.1
2017-Sep-17 09:30N 31°58' W 080°28'0 0.0
2017-Sep-17 08:54N 31°58' W 080°28'0 0.1
2017-Sep-17 08:30N 31°58' W 080°28'0 0.0
2017-Sep-17 08:00N 31°58' W 080°28'0 0.0
2017-Sep-17 07:30N 31°58' W 080°28'0 0.0
2017-Sep-17 07:00N 31°58' W 080°28'0 0.0
2017-Sep-17 06:24N 31°58' W 080°28'0 0.0
2017-Sep-17 06:00N 31°58' W 080°28'0 0.0
2017-Sep-17 05:24N 31°58' W 080°28'0 0.0
2017-Sep-17 05:00N 31°58' W 080°28'0 0.0
2017-Sep-17 04:30N 31°58' W 080°28'0 0.1
2017-Sep-17 03:54N 31°58' W 080°28'0 0.1
2017-Sep-17 03:30N 31°58' W 080°28'0 0.1
2017-Sep-17 03:00N 31°58' W 080°28'0 0.1
2017-Sep-17 02:24N 31°58' W 080°28'0 0.1
2017-Sep-17 01:48N 31°58' W 080°28'0 0.0
2017-Sep-17 01:30N 31°58' W 080°28'0 0.0
2017-Sep-17 01:00N 31°58' W 080°28'0 0.3
2017-Sep-17 00:30N 31°58' W 080°28'0 0.2
2017-Sep-16 23:54N 31°58' W 080°28'0 0.0
2017-Sep-16 23:24N 31°58' W 080°28'0 0.0
2017-Sep-16 22:42N 31°58' W 080°28'0 0.0
2017-Sep-16 22:24N 31°58' W 080°28'0 0.0
2017-Sep-16 22:00N 31°58' W 080°28'0 0.0
2017-Sep-16 21:30N 31°58' W 080°28'0 0.0
2017-Sep-16 21:00N 31°58' W 080°28'0 0.0
2017-Sep-16 20:30N 31°58' W 080°28'0 0.0
2017-Sep-16 20:00N 31°58' W 080°28'0 0.0
2017-Sep-16 19:30N 31°58' W 080°28'0 0.0
2017-Sep-16 18:54N 31°58' W 080°28'0 0.0
2017-Sep-16 18:30N 31°58' W 080°28'0 0.0
2017-Sep-16 18:00N 31°58' W 080°28'0 0.0
2017-Sep-16 17:30N 31°58' W 080°28'0 0.1
2017-Sep-16 16:48N 31°58' W 080°28'0 0.1
2017-Sep-16 16:24N 31°58' W 080°28'0 0.1
2017-Sep-16 15:42N 31°58' W 080°28'0 0.1
2017-Sep-16 15:30N 31°58' W 080°28'0 0.1
2017-Sep-16 15:00N 31°58' W 080°28'0 0.1
2017-Sep-16 14:30N 31°58' W 080°28'0 0.1
2017-Sep-16 14:00N 31°58' W 080°28'0 0.0
2017-Sep-16 13:24N 31°58' W 080°28'0 0.0
2017-Sep-16 12:48N 31°58' W 080°28'0 0.0
2017-Sep-16 12:30N 31°58' W 080°28'0 0.0
2017-Sep-16 12:00N 31°58' W 080°28'0 0.0
2017-Sep-16 11:30N 31°58' W 080°28'0 0.0
2017-Sep-16 11:00N 31°58' W 080°28'0 0.1
2017-Sep-16 10:30N 31°58' W 080°28'0 0.2
2017-Sep-16 10:00N 31°58' W 080°28'0 0.2
2017-Sep-16 09:30N 31°58' W 080°28'0 0.1
2017-Sep-16 09:00N 31°58' W 080°28'0 0.1
2017-Sep-16 08:30N 31°58' W 080°28'0 0.0
2017-Sep-16 08:00N 31°58' W 080°28'0 0.0
2017-Sep-16 07:30N 31°58' W 080°28'0 0.0
2017-Sep-16 07:00N 31°58' W 080°28'0 0.1
2017-Sep-16 06:30N 31°58' W 080°28'0 0.1
2017-Sep-16 05:54N 31°58' W 080°28'0 0.7
2017-Sep-16 05:30N 31°58' W 080°28'3 5.5
2017-Sep-16 05:00N 31°56' W 080°25'713.7
2017-Sep-16 04:30N 31°56' W 080°17'713.1
2017-Sep-16 04:00N 31°50' W 080°15'714.0
2017-Sep-16 03:30N 31°43' W 080°14'714.0
2017-Sep-16 03:00N 31°36' W 080°13'713.9
2017-Sep-16 02:30N 31°29' W 080°11'713.8
2017-Sep-16 02:00N 31°22' W 080°10'713.7
2017-Sep-16 01:30N 31°15' W 080°09'713.5
2017-Sep-16 01:00N 31°09' W 080°07'2713.6
2017-Sep-15 23:03N 30°46' W 079°50'113.7
2017-Sep-15 23:00N 30°46' W 079°50'  
Track history (hours):
 
Tides and Currents Weather Stations Pressure Air Temp Water Temp Dewpoint Dewpoint Depression Visibility Wind Speed Wind Dir Waves Ship Positions

Aristomenis

Last reported at 2017-Sep-25 15:28 UTC. Time now 2017-Oct-18 02:00 UTC.
Position N 40°23' W 071°48'.
Warning: this ship's position is 22 days out of date.

Length 350 m; draft 8.9 m.

Type: Ship (hazmat cat B). MMSI: 636018070.

Date/timePositionNaut miles runAvg speedWind from/ knotsBaromVisibWave heightAir tempDewpointWater temp
2017-Sep-25 15:28N 40°23' W 071°48'912.7
2017-Sep-25 14:45N 40°23' W 072°00'312.7
2017-Sep-25 14:30N 40°23' W 072°04'612.4
2017-Sep-25 14:00N 40°23' W 072°13'612.4
2017-Sep-25 13:30N 40°23' W 072°21'712.7
2017-Sep-25 12:59N 40°23' W 072°29'612.7
2017-Sep-25 12:30N 40°23' W 072°37'612.5
2017-Sep-25 12:00N 40°22' W 072°46'612.5
2017-Sep-25 11:30N 40°22' W 072°54'912.4
2017-Sep-25 10:45N 40°22' W 073°06'412.6
2017-Sep-25 10:28N 40°23' W 073°11'612.8
2017-Sep-25 09:59N 40°23' W 073°19'713.0
2017-Sep-25 09:26N 40°24' W 073°28'613.3
2017-Sep-25 08:57N 40°25' W 073°37'613.5
2017-Sep-25 08:30N 40°26' W 073°44'612.3
2017-Sep-25 08:00N 40°28' W 073°52'815.8
2017-Sep-25 07:30N 40°32' W 074°01'714.7
2017-Sep-25 07:00N 40°39' W 074°04'4 7.4
2017-Sep-25 06:30N 40°39' W 074°09'2 3.4
2017-Sep-25 06:01N 40°40' W 074°08'0 0.3
2017-Sep-25 05:28N 40°40' W 074°09'0 0.0
2017-Sep-25 04:58N 40°40' W 074°09'0 0.0
2017-Sep-25 04:28N 40°40' W 074°09'0 0.0
2017-Sep-25 03:58N 40°40' W 074°09'0 0.0
2017-Sep-25 03:28N 40°40' W 074°09'0 0.0
2017-Sep-25 02:58N 40°40' W 074°09'0 0.0
2017-Sep-25 02:28N 40°40' W 074°09'0 0.0
2017-Sep-25 01:58N 40°40' W 074°09'0 0.0
2017-Sep-25 01:28N 40°40' W 074°09'0 0.0
2017-Sep-25 00:58N 40°40' W 074°09'0 0.0
2017-Sep-25 00:28N 40°40' W 074°09'0 0.0
2017-Sep-24 23:58N 40°40' W 074°09'0 0.0
2017-Sep-24 23:28N 40°40' W 074°09'0 0.0
2017-Sep-24 22:58N 40°40' W 074°09'0 0.0
2017-Sep-24 22:28N 40°40' W 074°09'0 0.0
2017-Sep-24 21:58N 40°40' W 074°09'0 0.0
2017-Sep-24 21:28N 40°40' W 074°09'0 0.0
2017-Sep-24 20:55N 40°40' W 074°09'0 0.0
2017-Sep-24 20:28N 40°40' W 074°09'0 0.0
2017-Sep-24 19:58N 40°40' W 074°09'0 0.0
2017-Sep-24 19:25N 40°40' W 074°09'0 0.0
2017-Sep-24 18:55N 40°40' W 074°09'0 0.0
2017-Sep-24 18:28N 40°40' W 074°09'0 0.0
2017-Sep-24 17:58N 40°40' W 074°09'0 0.0
2017-Sep-24 17:25N 40°40' W 074°09'0 0.0
2017-Sep-24 16:58N 40°40' W 074°09'0 0.0
2017-Sep-24 16:28N 40°40' W 074°09'0 0.0
2017-Sep-24 15:55N 40°40' W 074°09'0 0.0
2017-Sep-24 15:28N 40°40' W 074°09'0 0.0
2017-Sep-24 14:55N 40°40' W 074°09'0 0.0
2017-Sep-24 14:28N 40°40' W 074°09'0 0.0
2017-Sep-24 13:58N 40°40' W 074°09'0 0.0
2017-Sep-24 13:25N 40°40' W 074°09'0 0.0
2017-Sep-24 12:58N 40°40' W 074°09'0 0.0
2017-Sep-24 12:25N 40°40' W 074°09'0 0.0
2017-Sep-24 11:58N 40°40' W 074°09'0 0.0
2017-Sep-24 11:28N 40°40' W 074°09'0 0.0
2017-Sep-24 10:58N 40°40' W 074°09'0 0.0
2017-Sep-24 10:28N 40°40' W 074°09'0 0.0
2017-Sep-24 10:00N 40°40' W 074°09'2 3.2
2017-Sep-24 09:31N 40°39' W 074°09'3 6.1
2017-Sep-24 09:00N 40°39' W 074°05'4 7.3
2017-Sep-24 08:31N 40°36' W 074°02'5 9.6
2017-Sep-24 08:00N 40°31' W 074°00'611.4
2017-Sep-24 07:30N 40°29' W 073°54'611.4
2017-Sep-24 07:00N 40°26' W 073°47'611.1
2017-Sep-24 06:30N 40°21' W 073°47'4 8.9
2017-Sep-24 06:01N 40°16' W 073°46'611.7
2017-Sep-24 05:30N 40°10' W 073°45'714.4
2017-Sep-24 05:00N 40°03' W 073°44'714.3
2017-Sep-24 04:31N 39°56' W 073°43'714.5
2017-Sep-24 04:01N 39°49' W 073°42'713.9
2017-Sep-24 03:30N 39°42' W 073°43'714.2
2017-Sep-24 03:00N 39°35' W 073°46'714.3
2017-Sep-24 02:30N 39°28' W 073°49'714.5
2017-Sep-24 02:00N 39°22' W 073°53'714.1
2017-Sep-24 01:30N 39°15' W 073°56'814.2
2017-Sep-24 00:57N 39°08' W 073°59'714.2
2017-Sep-24 00:28N 39°01' W 074°02'714.4
2017-Sep-24 00:00N 38°55' W 074°05'915.4
2017-Sep-23 23:24N 38°46' W 074°09'1415.2
2017-Sep-23 22:28N 38°33' W 074°15'715.0
2017-Sep-23 21:59N 38°26' W 074°18'  
2017-Sep-21 13:19N 32°46' W 079°53'2 7.2
2017-Sep-21 13:00N 32°48' W 079°55'2 5.0
2017-Sep-21 12:30N 32°50' W 079°54'0 0.3
2017-Sep-21 11:50N 32°50' W 079°54'0 0.0
2017-Sep-21 11:26N 32°50' W 079°54'0 0.0
2017-Sep-21 10:50N 32°50' W 079°54'0 0.0
2017-Sep-21 06:08N 32°50' W 079°54'0 0.0
2017-Sep-21 04:08N 32°50' W 079°54'0 0.0
2017-Sep-21 03:56N 32°50' W 079°54'0 0.0
2017-Sep-21 02:32N 32°50' W 079°54'0 0.1
2017-Sep-21 02:26N 32°50' W 079°54'0 0.0
2017-Sep-21 01:44N 32°50' W 079°54'0 0.0
2017-Sep-21 00:24N 32°50' W 079°54'2 4.3
2017-Sep-21 00:00N 32°48' W 079°55'4 8.5
2017-Sep-20 23:30N 32°45' W 079°52'612.1
2017-Sep-20 23:00N 32°42' W 079°46'1011.3
2017-Sep-20 22:05N 32°36' W 079°36'0 1.6
2017-Sep-20 21:59N 32°36' W 079°35'0 0.5
2017-Sep-20 21:15N 32°36' W 079°35'0 0.3
2017-Sep-20 21:00N 32°36' W 079°35'2 0.3
2017-Sep-20 13:33N 32°34' W 079°34'0 0.1
2017-Sep-20 13:15N 32°34' W 079°34'0 0.1
2017-Sep-20 12:39N 32°34' W 079°34'0 0.0
2017-Sep-20 12:27N 32°34' W 079°34'0 0.1
2017-Sep-20 10:33N 32°34' W 079°34'0 0.2
2017-Sep-20 10:30N 32°34' W 079°34'1 1.2
2017-Sep-20 10:00N 32°34' W 079°34'510.0
2017-Sep-20 09:29N 32°29' W 079°36'510.5
2017-Sep-20 09:00N 32°25' W 079°38'610.4
2017-Sep-20 08:26N 32°19' W 079°42'4 9.8
2017-Sep-20 08:00N 32°16' W 079°45'510.2
2017-Sep-20 07:30N 32°13' W 079°50'510.2
2017-Sep-20 07:00N 32°10' W 079°54'510.3
2017-Sep-20 06:30N 32°07' W 079°59'510.4
2017-Sep-20 06:00N 32°03' W 080°04'510.5
2017-Sep-20 05:30N 32°00' W 080°09'610.6
2017-Sep-20 04:59N 31°58' W 080°15'510.9
2017-Sep-20 04:30N 31°57' W 080°21'510.9
2017-Sep-20 04:00N 31°56' W 080°27'611.2
2017-Sep-20 03:30N 31°56' W 080°34'611.5
2017-Sep-20 03:00N 31°57' W 080°41'612.2
2017-Sep-20 02:30N 31°60' W 080°47'611.2
2017-Sep-20 02:00N 32°02' W 080°53'510.7
2017-Sep-20 01:31N 32°05' W 080°59'4 7.4
2017-Sep-20 01:01N 32°05' W 081°03'2 4.8
2017-Sep-20 00:30N 32°05' W 081°06'2 3.5
2017-Sep-20 00:00N 32°06' W 081°07'2 3.6
2017-Sep-19 23:31N 32°08' W 081°08'0 0.6
2017-Sep-19 22:59N 32°08' W 081°09'0 0.0
2017-Sep-19 22:23N 32°08' W 081°09'0 0.0
2017-Sep-19 21:59N 32°08' W 081°09'0 0.0
2017-Sep-19 21:17N 32°08' W 081°09'0 0.0
2017-Sep-19 20:59N 32°08' W 081°09'0 0.0
2017-Sep-19 20:29N 32°08' W 081°09'0 0.0
2017-Sep-19 19:59N 32°08' W 081°09'0 0.0
2017-Sep-19 19:23N 32°08' W 081°09'0 0.0
2017-Sep-19 18:59N 32°08' W 081°09'0 0.0
2017-Sep-19 18:23N 32°08' W 081°09'0 0.0
2017-Sep-19 17:53N 32°08' W 081°09'0 0.0
2017-Sep-19 17:23N 32°08' W 081°09'0 0.0
2017-Sep-19 16:59N 32°08' W 081°09'0 0.0
2017-Sep-19 16:23N 32°08' W 081°09'0 0.0
2017-Sep-19 15:59N 32°08' W 081°09'0 0.0
2017-Sep-19 15:29N 32°08' W 081°09'0 0.0
2017-Sep-19 14:53N 32°08' W 081°09'0 0.0
2017-Sep-19 14:29N 32°08' W 081°09'0 0.0
2017-Sep-19 13:53N 32°08' W 081°09'0 0.0
2017-Sep-19 13:17N 32°08' W 081°09'0 0.0
2017-Sep-19 12:47N 32°08' W 081°09'0 0.0
2017-Sep-19 11:59N 32°08' W 081°09'0 0.0
2017-Sep-19 11:29N 32°08' W 081°09'0 0.0
2017-Sep-19 10:53N 32°08' W 081°09'0 0.0
2017-Sep-19 10:29N 32°08' W 081°09'0 0.0
2017-Sep-19 09:23N 32°08' W 081°09'0 0.0
2017-Sep-19 08:47N 32°08' W 081°09'0 0.0
2017-Sep-19 08:23N 32°08' W 081°09'0 0.0
2017-Sep-19 07:59N 32°08' W 081°09'0 0.0
2017-Sep-19 07:17N 32°08' W 081°09'0 0.0
2017-Sep-19 06:59N 32°08' W 081°09'0 0.0
2017-Sep-19 06:29N 32°08' W 081°09'0 0.0
2017-Sep-19 06:00N 32°08' W 081°09'0 0.2
2017-Sep-19 05:30N 32°08' W 081°08'0 0.8
2017-Sep-19 05:00N 32°08' W 081°08'1 2.9
2017-Sep-19 04:30N 32°07' W 081°07'2 3.2
2017-Sep-19 04:00N 32°05' W 081°06'2 3.3
2017-Sep-19 03:30N 32°05' W 081°04'3 6.2
2017-Sep-19 03:00N 32°06' W 081°01'4 8.6
2017-Sep-19 02:30N 32°04' W 080°57'5 9.5
2017-Sep-19 02:00N 32°02' W 080°51'511.0
2017-Sep-19 01:30N 31°59' W 080°46'5 9.5
2017-Sep-19 01:00N 31°57' W 080°41'5 9.1
2017-Sep-19 00:30N 31°56' W 080°36'4 8.5
2017-Sep-19 00:00N 31°56' W 080°31'3 5.6
2017-Sep-18 23:29N 31°58' W 080°28'0 0.2
2017-Sep-18 22:54N 31°58' W 080°28'0 0.0
2017-Sep-18 22:30N 31°58' W 080°28'0 0.0
2017-Sep-18 22:00N 31°58' W 080°28'0 0.0
2017-Sep-18 21:30N 31°58' W 080°28'0 0.0
2017-Sep-18 20:54N 31°58' W 080°28'0 0.0
2017-Sep-18 20:30N 31°58' W 080°28'0 0.0
2017-Sep-18 19:54N 31°58' W 080°28'0 0.0
2017-Sep-18 19:30N 31°58' W 080°28'0 0.0
2017-Sep-18 19:00N 31°58' W 080°28'0 0.1
2017-Sep-18 18:30N 31°58' W 080°28'0 0.0
2017-Sep-18 17:54N 31°58' W 080°28'0 0.1
2017-Sep-18 17:30N 31°58' W 080°28'0 0.1
2017-Sep-18 17:00N 31°58' W 080°28'0 0.1
2017-Sep-18 16:30N 31°58' W 080°28'0 0.1
2017-Sep-18 16:00N 31°58' W 080°28'0 0.1
2017-Sep-18 15:30N 31°58' W 080°28'0 0.0
2017-Sep-18 14:54N 31°58' W 080°28'0 0.0
2017-Sep-18 14:24N 31°58' W 080°28'0 0.0
2017-Sep-18 14:00N 31°58' W 080°28'0 0.0
2017-Sep-18 13:24N 31°58' W 080°28'0 0.1
2017-Sep-18 12:54N 31°58' W 080°28'0 0.1
2017-Sep-18 12:12N 31°58' W 080°28'0 0.0
2017-Sep-18 12:00N 31°58' W 080°28'0 0.0
2017-Sep-18 11:18N 31°58' W 080°28'0 0.1
2017-Sep-18 10:54N 31°58' W 080°28'0 0.0
2017-Sep-18 10:30N 31°58' W 080°28'0 0.1
2017-Sep-18 10:00N 31°58' W 080°28'0 0.1
2017-Sep-18 09:24N 31°58' W 080°28'0 0.0
2017-Sep-18 08:48N 31°58' W 080°28'0 0.0
2017-Sep-18 08:30N 31°58' W 080°28'0 0.0
2017-Sep-18 08:00N 31°58' W 080°28'0 0.0
2017-Sep-18 07:30N 31°58' W 080°28'0 0.0
2017-Sep-18 07:00N 31°58' W 080°28'0 0.0
2017-Sep-18 06:30N 31°58' W 080°28'0 0.0
2017-Sep-18 05:54N 31°58' W 080°28'0 0.0
2017-Sep-18 05:30N 31°58' W 080°28'0 0.0
2017-Sep-18 05:00N 31°58' W 080°28'0 0.1
2017-Sep-18 04:30N 31°58' W 080°28'0 0.1
2017-Sep-18 04:00N 31°58' W 080°28'0 0.1
2017-Sep-18 03:30N 31°58' W 080°28'0 0.0
2017-Sep-18 03:00N 31°58' W 080°28'0 0.0
2017-Sep-18 02:30N 31°58' W 080°28'0 0.0
2017-Sep-18 02:00N 31°58' W 080°28'0 0.1
2017-Sep-18 01:30N 31°58' W 080°28'0 0.1
2017-Sep-18 01:00N 31°58' W 080°28'0 0.2
2017-Sep-18 00:24N 31°58' W 080°28'0 0.0
2017-Sep-18 00:00N 31°58' W 080°28'0 0.1
2017-Sep-17 23:30N 31°58' W 080°28'0 0.0
2017-Sep-17 23:00N 31°58' W 080°28'0 0.0
2017-Sep-17 22:30N 31°58' W 080°28'0 0.0
2017-Sep-17 22:00N 31°58' W 080°28'0 0.0
2017-Sep-17 21:30N 31°58' W 080°28'0 0.0
2017-Sep-17 20:54N 31°58' W 080°28'0 0.0
2017-Sep-17 20:30N 31°58' W 080°28'0 0.0
2017-Sep-17 20:00N 31°58' W 080°28'0 0.0
2017-Sep-17 19:30N 31°58' W 080°28'0 0.0
2017-Sep-17 19:00N 31°58' W 080°28'0 0.0
2017-Sep-17 18:30N 31°58' W 080°28'0 0.0
2017-Sep-17 17:48N 31°58' W 080°28'0 0.1
2017-Sep-17 17:30N 31°58' W 080°28'0 0.0
2017-Sep-17 17:00N 31°58' W 080°28'0 0.1
2017-Sep-17 16:30N 31°58' W 080°28'0 0.1
2017-Sep-17 16:00N 31°58' W 080°28'0 0.1
2017-Sep-17 15:30N 31°58' W 080°28'0 0.0
2017-Sep-17 15:00N 31°58' W 080°28'0 0.0
2017-Sep-17 14:30N 31°58' W 080°28'0 0.1
2017-Sep-17 14:00N 31°58' W 080°28'0 0.0
2017-Sep-17 13:30N 31°58' W 080°28'0 0.0
2017-Sep-17 13:00N 31°58' W 080°28'0 0.0
2017-Sep-17 12:30N 31°58' W 080°28'0 0.0
2017-Sep-17 11:54N 31°58' W 080°28'0 0.0
2017-Sep-17 11:30N 31°58' W 080°28'0 0.0
2017-Sep-17 11:00N 31°58' W 080°28'0 0.1
2017-Sep-17 10:24N 31°58' W 080°28'0 0.2
2017-Sep-17 10:00N 31°58' W 080°28'0 0.1
2017-Sep-17 09:30N 31°58' W 080°28'0 0.0
2017-Sep-17 08:54N 31°58' W 080°28'0 0.1
2017-Sep-17 08:30N 31°58' W 080°28'0 0.0
2017-Sep-17 08:00N 31°58' W 080°28'0 0.0
2017-Sep-17 07:30N 31°58' W 080°28'0 0.0
2017-Sep-17 07:00N 31°58' W 080°28'0 0.0
2017-Sep-17 06:24N 31°58' W 080°28'0 0.0
2017-Sep-17 06:00N 31°58' W 080°28'0 0.0
2017-Sep-17 05:24N 31°58' W 080°28'0 0.0
2017-Sep-17 05:00N 31°58' W 080°28'0 0.0
2017-Sep-17 04:30N 31°58' W 080°28'0 0.1
2017-Sep-17 03:54N 31°58' W 080°28'0 0.1
2017-Sep-17 03:30N 31°58' W 080°28'0 0.1
2017-Sep-17 03:00N 31°58' W 080°28'0 0.1
2017-Sep-17 02:24N 31°58' W 080°28'0 0.1
2017-Sep-17 01:48N 31°58' W 080°28'0 0.0
2017-Sep-17 01:30N 31°58' W 080°28'0 0.0
2017-Sep-17 01:00N 31°58' W 080°28'0 0.3
2017-Sep-17 00:30N 31°58' W 080°28'0 0.2
2017-Sep-16 23:54N 31°58' W 080°28'0 0.0
2017-Sep-16 23:24N 31°58' W 080°28'0 0.0
2017-Sep-16 22:42N 31°58' W 080°28'0 0.0
2017-Sep-16 22:24N 31°58' W 080°28'0 0.0
2017-Sep-16 22:00N 31°58' W 080°28'0 0.0
2017-Sep-16 21:30N 31°58' W 080°28'0 0.0
2017-Sep-16 21:00N 31°58' W 080°28'0 0.0
2017-Sep-16 20:30N 31°58' W 080°28'0 0.0
2017-Sep-16 20:00N 31°58' W 080°28'0 0.0
2017-Sep-16 19:30N 31°58' W 080°28'0 0.0
2017-Sep-16 18:54N 31°58' W 080°28'0 0.0
2017-Sep-16 18:30N 31°58' W 080°28'0 0.0
2017-Sep-16 18:00N 31°58' W 080°28'0 0.0
2017-Sep-16 17:30N 31°58' W 080°28'0 0.1
2017-Sep-16 16:48N 31°58' W 080°28'0 0.1
2017-Sep-16 16:24N 31°58' W 080°28'0 0.1
2017-Sep-16 15:42N 31°58' W 080°28'0 0.1
2017-Sep-16 15:30N 31°58' W 080°28'0 0.1
2017-Sep-16 15:00N 31°58' W 080°28'0 0.1
2017-Sep-16 14:30N 31°58' W 080°28'0 0.1
2017-Sep-16 14:00N 31°58' W 080°28'0 0.0
2017-Sep-16 13:24N 31°58' W 080°28'0 0.0
2017-Sep-16 12:48N 31°58' W 080°28'0 0.0
2017-Sep-16 12:30N 31°58' W 080°28'0 0.0
2017-Sep-16 12:00N 31°58' W 080°28'0 0.0
2017-Sep-16 11:30N 31°58' W 080°28'0 0.0
2017-Sep-16 11:00N 31°58' W 080°28'0 0.1
2017-Sep-16 10:30N 31°58' W 080°28'0 0.2
2017-Sep-16 10:00N 31°58' W 080°28'0 0.2
2017-Sep-16 09:30N 31°58' W 080°28'0 0.1
2017-Sep-16 09:00N 31°58' W 080°28'0 0.1
2017-Sep-16 08:30N 31°58' W 080°28'0 0.0
2017-Sep-16 08:00N 31°58' W 080°28'0 0.0
2017-Sep-16 07:30N 31°58' W 080°28'0 0.0
2017-Sep-16 07:00N 31°58' W 080°28'0 0.1
2017-Sep-16 06:30N 31°58' W 080°28'0 0.1
2017-Sep-16 05:54N 31°58' W 080°28'0 0.7
2017-Sep-16 05:30N 31°58' W 080°28'3 5.5
2017-Sep-16 05:00N 31°56' W 080°25'713.7
2017-Sep-16 04:30N 31°56' W 080°17'713.1
2017-Sep-16 04:00N 31°50' W 080°15'714.0
2017-Sep-16 03:30N 31°43' W 080°14'714.0
2017-Sep-16 03:00N 31°36' W 080°13'713.9
2017-Sep-16 02:30N 31°29' W 080°11'713.8
2017-Sep-16 02:00N 31°22' W 080°10'713.7
2017-Sep-16 01:30N 31°15' W 080°09'713.5
2017-Sep-16 01:00N 31°09' W 080°07'2713.6
2017-Sep-15 23:03N 30°46' W 079°50'113.7
2017-Sep-15 23:00N 30°46' W 079°50'  

Dump ship's entire track history